Airfield :
LOGIN :

Register | Disclaimer

   EN    FR    IT 

 










Legend :    VFR   Marginal VFR   IFR   Intensive IFR   Very Intensive IFR
Visi :
Ceiling :
>= 8 km
>= 3000ft
5 to 8 km
1000 to 3000 ft
1500m to 5 km
500 to 1000 ft
800 to 1500m
200 to 500 ft
< 800m
< 200 ft
Symbols :   Thunderstorms  Fog  Heavy snow  Heavy precipitations  Wind > 20 kt
SIGMETs :     Misc.  Thunderstorms  Icing  Turbulence  Mountain Waves  Volcanic Ashes







- Airport Elevation : 191 ft
- IATA code : RNB


ESDF - Ronneby

CURRENT METAR :
  • 190750Z VRB01KT 0900 R01/1400N R19/1800N -RA FG BKN020 00/00 Q1005

EXPIRED METARs :
  • 190720Z 00000KT 0700 R01/0900N R19/0550V1100U FZFG FEW001 BKN033 M00/M00 Q1005
  • 190650Z VRB01KT 0500 R01/0400N R19/0375N FZFG VV001 M00/M00 Q1006
  • 190620Z VRB01KT 0100 R01/0225N R19/0300N FZFG VV000 M01/M01 Q1006
  • 190550Z 00000KT 0100 R01/0275N R19/0350N FZFG VV000 M01/M01 Q1006
  • 190520Z 10003KT 020V120 0100 R01/0300N R19/0375N FZFG VV000 M00/M00 Q1006

TAF AMD TAF ESDF
Valid from the 19 at 06:00 until the 19 at 15:00 UTC


190655Z 1906/1915 VRB02KT 0100 FG VV001
BECMG 1907/1910 25008KT 5000 NSW BKN010
PROB40 1910/1911 2000 RA BKN003 RMK MIL
No reported NOTAMs for that airfield.



MET'MAP, your aeronautical weather chart ! - Copyright ORBIFLY December 2007 - Disclaimer

ORBIFLY MET'MAP TEAM :

Programming & Development : Alexandra Zaïnal
Concept & Development : Baudouin d'Aumeries
Co-Development & Prog : Marc-Olivier Méhu
Technical & hardware support : Manuel Goepfert

Contact : metmap@orbifly.com




SOURCES & CREDITS :

   NOAA